createdAt,value
2023-03-27T00:00:06.494Z,999.68
2023-03-27T00:00:37.455Z,999.68
2023-03-27T00:01:08.204Z,999.69
2023-03-27T00:01:38.717Z,999.69
2023-03-27T00:02:09.722Z,999.70
2023-03-27T00:02:40.502Z,999.70
2023-03-27T00:03:11.198Z,999.72
2023-03-27T00:03:41.988Z,999.69
2023-03-27T00:04:12.837Z,999.70
2023-03-27T00:04:44.446Z,999.72
2023-03-27T00:05:14.064Z,999.71
2023-03-27T00:05:44.768Z,999.72
2023-03-27T00:06:15.645Z,999.72
2023-03-27T00:06:46.158Z,999.72
2023-03-27T00:07:17.300Z,999.74
2023-03-27T00:07:48.032Z,999.74
2023-03-27T00:08:18.741Z,999.73
2023-03-27T00:08:49.285Z,999.76
2023-03-27T00:09:20.029Z,999.77
2023-03-27T00:09:50.773Z,999.78
2023-03-27T00:10:21.463Z,999.77
2023-03-27T00:10:51.990Z,999.79
2023-03-27T00:11:22.588Z,999.79
2023-03-27T00:11:53.266Z,999.80
2023-03-27T00:12:23.984Z,999.78
2023-03-27T00:12:54.488Z,999.79
2023-03-27T00:13:25.589Z,999.78
2023-03-27T00:13:56.289Z,999.81
2023-03-27T00:14:26.956Z,999.83
2023-03-27T00:14:57.656Z,999.83
2023-03-27T00:15:28.535Z,999.83
2023-03-27T00:15:59.294Z,999.84
2023-03-27T00:16:29.896Z,999.84
2023-03-27T00:17:00.548Z,999.83
2023-03-27T00:17:31.260Z,999.83
2023-03-27T00:18:01.818Z,999.81
2023-03-27T00:18:32.523Z,999.84
2023-03-27T00:19:03.196Z,999.80
2023-03-27T00:20:14.766Z,999.75
2023-03-27T00:20:45.217Z,999.75
2023-03-27T00:21:16.331Z,999.74
2023-03-27T00:21:46.846Z,999.75
2023-03-27T00:22:17.370Z,999.74
2023-03-27T00:22:48.208Z,999.77
2023-03-27T00:23:18.694Z,999.77
2023-03-27T00:23:49.716Z,999.76
2023-03-27T00:24:20.816Z,999.75
2023-03-27T00:24:51.620Z,999.75
2023-03-27T00:25:22.277Z,999.75
2023-03-27T00:25:53.133Z,999.75
2023-03-27T00:27:04.970Z,999.74
2023-03-27T00:27:35.468Z,999.73
2023-03-27T00:28:06.145Z,999.71
2023-03-27T00:28:36.832Z,999.74
2023-03-27T00:29:07.317Z,999.75
2023-03-27T00:29:38.589Z,999.71
2023-03-27T00:30:09.279Z,999.74
2023-03-27T00:30:39.803Z,999.73
2023-03-27T00:31:10.685Z,999.74
2023-03-27T00:31:40.904Z,999.73
2023-03-27T00:32:11.985Z,999.74
2023-03-27T00:32:42.938Z,999.76
2023-03-27T00:33:13.670Z,999.77
2023-03-27T00:33:44.365Z,999.77
2023-03-27T00:34:14.858Z,999.77
2023-03-27T00:34:45.536Z,999.78
2023-03-27T00:35:16.236Z,999.73
2023-03-27T00:35:47.242Z,999.76
2023-03-27T00:36:17.293Z,999.78
2023-03-27T00:36:48.409Z,999.77
2023-03-27T00:37:19.100Z,999.77
2023-03-27T00:37:49.794Z,999.78
2023-03-27T00:38:20.325Z,999.78
2023-03-27T00:38:51.298Z,999.78
2023-03-27T00:39:21.924Z,999.80
2023-03-27T00:39:52.415Z,999.78
2023-03-27T00:40:23.691Z,999.81
2023-03-27T00:40:55.056Z,999.81
2023-03-27T00:41:24.956Z,999.77
2023-03-27T00:41:55.823Z,999.77
2023-03-27T00:42:26.379Z,999.75
2023-03-27T00:42:57.062Z,999.75
2023-03-27T00:43:27.757Z,999.76
2023-03-27T00:43:58.479Z,999.78
2023-03-27T00:44:28.937Z,999.77
2023-03-27T00:45:00.166Z,999.77
2023-03-27T00:45:30.658Z,999.74
2023-03-27T00:46:01.428Z,999.76
2023-03-27T00:46:32.196Z,999.74
2023-03-27T00:47:02.870Z,999.75
2023-03-27T00:47:33.598Z,999.75
2023-03-27T00:48:04.487Z,999.74
2023-03-27T00:48:35.009Z,999.76
2023-03-27T00:49:05.752Z,999.75
2023-03-27T00:49:36.389Z,999.74
2023-03-27T00:50:07.097Z,999.76
2023-03-27T00:50:37.844Z,999.74
2023-03-27T00:51:08.746Z,999.75
2023-03-27T00:51:39.347Z,999.76
2023-03-27T00:52:10.037Z,999.75
2023-03-27T00:52:40.856Z,999.76
2023-03-27T00:53:11.382Z,999.77
2023-03-27T00:53:41.841Z,999.73
2023-03-27T00:54:13.220Z,999.76
2023-03-27T00:54:43.914Z,999.76
2023-03-27T00:55:14.684Z,999.74
2023-03-27T00:55:45.425Z,999.73
2023-03-27T00:56:16.114Z,999.75
2023-03-27T00:56:46.842Z,999.77
2023-03-27T05:01:19.577Z,1004.48
2023-03-27T05:01:50.340Z,1004.50
2023-03-27T05:02:21.614Z,1004.52
2023-03-27T05:02:52.227Z,1004.53
2023-03-27T05:03:22.822Z,1004.55
2023-03-27T05:03:53.311Z,1004.56
2023-03-27T05:04:23.831Z,1004.60
2023-03-27T05:04:54.372Z,1004.56
2023-03-27T05:05:25.551Z,1004.58
2023-03-27T05:05:56.101Z,1004.59
2023-03-27T05:06:26.560Z,1004.61
2023-03-27T05:06:57.584Z,1004.69
2023-03-27T05:07:28.155Z,1004.66
2023-03-27T05:07:58.584Z,1004.66
2023-03-27T05:08:29.695Z,1004.67
2023-03-27T05:09:00.179Z,1004.68
2023-03-27T05:09:31.128Z,1004.71
2023-03-27T05:10:02.301Z,1004.72
2023-03-27T05:10:32.798Z,1004.75
2023-03-27T05:11:03.704Z,1004.75
2023-03-27T05:11:34.768Z,1004.77
2023-03-27T05:12:05.241Z,1004.78
2023-03-27T05:12:36.136Z,1004.81
2023-03-27T05:13:07.094Z,1004.79
2023-03-27T05:13:38.065Z,1004.81
2023-03-27T05:14:08.954Z,1004.80
2023-03-27T05:14:40.185Z,1004.87
2023-03-27T05:15:10.602Z,1004.86
2023-03-27T05:15:41.468Z,1004.86
2023-03-27T05:17:32.607Z,1004.92
2023-03-27T05:18:03.187Z,1004.95
2023-03-27T05:18:33.638Z,1004.99
2023-03-27T05:19:04.533Z,1005.04
2023-03-27T05:19:35.726Z,1005.03
2023-03-27T05:20:06.203Z,1005.05
2023-03-27T05:20:37.091Z,1005.06
2023-03-27T05:21:08.048Z,1005.05
2023-03-27T05:21:38.934Z,1005.05
2023-03-27T05:22:09.823Z,1005.09
2023-03-27T05:22:40.969Z,1005.10
2023-03-27T05:23:11.433Z,1005.12
2023-03-27T05:23:42.331Z,1005.12
2023-03-27T05:24:13.230Z,1005.18
2023-03-27T05:24:44.220Z,1005.21
2023-03-27T05:25:15.106Z,1005.19
2023-03-27T05:26:00.035Z,1005.22
2023-03-27T05:26:17.631Z,1005.20
2023-03-27T05:26:47.579Z,1005.23
2023-03-27T05:27:18.571Z,1005.27
2023-03-27T05:27:49.508Z,1005.27
2023-03-27T05:28:20.678Z,1005.28
2023-03-27T05:28:51.127Z,1005.31
2023-03-27T05:29:22.084Z,1005.32
2023-03-27T05:29:52.997Z,1005.37
2023-03-27T05:30:24.033Z,1005.38
2023-03-27T05:30:54.633Z,1005.39
2023-03-27T05:31:25.547Z,1005.41
2023-03-27T05:31:55.877Z,1005.40
2023-03-27T05:32:26.781Z,1005.44
2023-03-27T05:32:57.842Z,1005.45
2023-03-27T05:33:28.314Z,1005.50
2023-03-27T05:33:59.222Z,1005.55
2023-03-27T05:34:30.237Z,1005.55
2023-03-27T05:35:00.687Z,1005.54
2023-03-27T05:35:31.623Z,1005.57
2023-03-27T05:36:02.390Z,1005.59
2023-03-27T05:36:32.908Z,1005.58
2023-03-27T05:37:03.851Z,1005.63
2023-03-27T05:37:34.935Z,1005.64
2023-03-27T05:38:05.440Z,1005.67
2023-03-27T05:38:36.497Z,1005.68
2023-03-27T05:39:06.970Z,1005.71
2023-03-27T05:39:37.913Z,1005.70
2023-03-27T05:40:08.900Z,1005.72
2023-03-27T05:40:39.954Z,1005.75
2023-03-27T05:41:10.395Z,1005.78
2023-03-27T05:41:41.287Z,1005.79
2023-03-27T05:42:12.185Z,1005.77
2023-03-27T05:42:43.145Z,1005.78
2023-03-27T05:43:14.050Z,1005.81
2023-03-27T05:43:45.126Z,1005.80
2023-03-27T05:44:15.760Z,1005.84
2023-03-27T05:44:46.255Z,1005.84
2023-03-27T05:45:17.253Z,1005.90
2023-03-27T05:45:48.223Z,1005.93
2023-03-27T05:46:21.106Z,1005.93
2023-03-27T05:46:49.735Z,1005.92
2023-03-27T05:47:20.200Z,1005.91
2023-03-27T05:47:51.219Z,1005.98
2023-03-27T05:48:21.828Z,1006.01
2023-03-27T05:48:52.229Z,1006.01
2023-03-27T05:49:23.129Z,1006.02
2023-03-27T05:49:54.267Z,1006.04
2023-03-27T05:50:24.809Z,1006.07
2023-03-27T05:50:55.650Z,1006.06
2023-03-27T05:51:25.874Z,1006.09
2023-03-27T05:51:56.794Z,1006.10
2023-03-27T05:52:28.859Z,1006.13
2023-03-27T05:52:58.699Z,1006.13
2023-03-27T05:53:29.208Z,1006.17
2023-03-27T05:53:59.695Z,1006.16
2023-03-27T05:54:30.628Z,1006.18
2023-03-27T05:55:01.546Z,1006.19
2023-03-27T05:55:32.552Z,1006.20
2023-03-27T05:56:03.670Z,1006.20
2023-03-27T05:56:33.877Z,1006.23
2023-03-27T05:57:04.493Z,1006.23
2023-03-27T05:57:34.890Z,1006.27
2023-03-27T05:58:05.845Z,1006.26
2023-03-27T05:58:36.336Z,1006.29
2023-03-27T05:59:07.490Z,1006.30
2023-03-27T05:59:37.959Z,1006.33
2023-03-27T06:00:08.858Z,1006.35
2023-03-27T06:00:40.062Z,1006.37
2023-03-27T06:01:10.460Z,1006.40
2023-03-27T06:01:41.557Z,1006.40
2023-03-27T06:02:12.205Z,1006.41
2023-03-27T06:02:42.767Z,1006.43
2023-03-27T06:03:13.438Z,1006.47
2023-03-27T06:03:44.271Z,1006.48
2023-03-27T06:04:14.832Z,1006.45
2023-03-27T06:04:45.927Z,1006.47
2023-03-27T06:05:16.826Z,1006.53
2023-03-27T06:05:47.335Z,1006.54
2023-03-27T06:06:18.306Z,1006.54
2023-03-27T06:06:49.504Z,1006.55
2023-03-27T06:07:19.974Z,1006.55
2023-03-27T06:07:50.845Z,1006.59
2023-03-27T06:08:21.988Z,1006.60
2023-03-27T06:08:52.441Z,1006.62
2023-03-27T06:09:23.439Z,1006.64
2023-03-27T06:09:54.398Z,1006.66
2023-03-27T06:10:25.336Z,1006.65
2023-03-27T06:10:56.519Z,1006.72
2023-03-27T06:11:27.326Z,1006.69
2023-03-27T06:11:57.777Z,1006.69
2023-03-27T06:12:28.672Z,1006.73
2023-03-27T06:12:59.587Z,1006.76
2023-03-27T06:13:30.517Z,1006.79
2023-03-27T06:14:01.508Z,1006.78
2023-03-27T06:14:32.706Z,1006.79
2023-03-27T06:15:03.167Z,1006.83
2023-03-27T06:15:34.216Z,1006.82
2023-03-27T06:16:04.733Z,1006.87
2023-03-27T06:16:35.142Z,1006.88
2023-03-27T06:17:06.087Z,1006.89
2023-03-27T06:17:37.167Z,1006.91
2023-03-27T06:18:07.687Z,1006.92
2023-03-27T06:18:38.176Z,1006.95
2023-03-27T06:19:09.122Z,1006.96
2023-03-27T06:19:40.015Z,1007.00
2023-03-27T06:20:10.924Z,1006.99
2023-03-27T06:20:42.136Z,1007.00
2023-03-27T06:21:12.640Z,1007.02
2023-03-27T06:22:22.614Z,1007.03
2023-03-27T06:22:53.501Z,1007.06
2023-03-27T06:23:24.390Z,1007.07
2023-03-27T06:23:55.323Z,1007.09
2023-03-27T06:24:26.234Z,1007.12
2023-03-27T06:24:57.360Z,1007.14
2023-03-27T06:25:27.866Z,1007.17
2023-03-27T06:25:59.027Z,1007.20
2023-03-27T06:26:29.620Z,1007.20
2023-03-27T06:27:00.575Z,1007.23
2023-03-27T06:27:31.554Z,1007.26
2023-03-27T06:28:02.226Z,1007.26
2023-03-27T06:28:32.708Z,1007.26
2023-03-27T06:29:07.887Z,1007.28
2023-03-27T06:29:35.586Z,1007.33
2023-03-27T06:30:04.999Z,1007.32
2023-03-27T06:30:36.125Z,1007.37
2023-03-27T06:31:06.665Z,1007.37
2023-03-27T06:31:37.101Z,1007.35
2023-03-27T06:32:08.020Z,1007.38
2023-03-27T06:32:39.029Z,1007.41
2023-03-27T06:33:09.969Z,1007.38
2023-03-27T06:33:40.936Z,1007.42
2023-03-27T06:34:11.509Z,1007.41
2023-03-27T06:34:42.130Z,1007.47
2023-03-27T06:35:12.627Z,1007.45
2023-03-27T06:35:43.125Z,1007.45
2023-03-27T06:36:15.235Z,1007.47
2023-03-27T06:36:44.796Z,1007.47
2023-03-27T06:37:16.030Z,1007.46
2023-03-27T06:37:47.407Z,1007.55
2023-03-27T06:38:17.306Z,1007.52
2023-03-27T06:38:48.413Z,1007.53
2023-03-27T06:39:20.802Z,1007.54
2023-03-27T06:39:49.817Z,1007.56
2023-03-27T06:40:20.317Z,1007.56
2023-03-27T06:40:51.224Z,1007.55
2023-03-27T06:41:22.220Z,1007.59
2023-03-27T06:41:53.453Z,1007.60
2023-03-27T06:42:23.892Z,1007.59
2023-03-27T06:42:54.911Z,1007.64
2023-03-27T06:43:25.337Z,1007.63
2023-03-27T06:43:56.212Z,1007.67
2023-03-27T06:44:27.121Z,1007.68
2023-03-27T06:44:58.290Z,1007.71
2023-03-27T06:45:28.771Z,1007.71
2023-03-27T06:45:59.950Z,1007.73
2023-03-27T06:46:42.655Z,1007.74
2023-03-27T06:47:02.498Z,1007.76
2023-03-27T06:47:36.319Z,1007.76
2023-03-27T06:48:17.826Z,1007.77
2023-03-27T06:48:34.498Z,1007.80
2023-03-27T06:49:03.922Z,1007.81
2023-03-27T06:49:35.216Z,1007.81
2023-03-27T06:50:05.699Z,1007.84
2023-03-27T06:50:36.595Z,1007.88
2023-03-27T06:51:07.484Z,1007.88
2023-03-27T06:51:38.620Z,1007.93
2023-03-27T06:52:09.122Z,1007.93
2023-03-27T06:52:39.910Z,1007.93
2023-03-27T06:53:25.902Z,1007.95
2023-03-27T06:53:41.963Z,1007.98
2023-03-27T06:54:11.872Z,1008.00
2023-03-27T06:54:42.912Z,1008.01
2023-03-27T06:55:15.156Z,1008.06
2023-03-27T06:55:44.056Z,1008.04
2023-03-27T06:56:14.542Z,1008.05
2023-03-27T06:56:45.456Z,1008.11
2023-03-27T06:57:16.381Z,1008.08
2023-03-27T06:57:47.325Z,1008.15
2023-03-27T06:58:18.566Z,1008.10
2023-03-27T06:58:49.063Z,1008.14
2023-03-27T06:59:20.106Z,1008.16
2023-03-27T06:59:50.606Z,1008.17
2023-03-27T07:00:23.539Z,1008.19
2023-03-27T07:00:52.428Z,1008.20
2023-03-27T07:01:23.575Z,1008.24
2023-03-27T07:01:54.065Z,1008.25
2023-03-27T07:02:24.465Z,1008.27
2023-03-27T07:02:55.520Z,1008.26
2023-03-27T07:03:26.349Z,1008.25
2023-03-27T07:03:57.216Z,1008.28
2023-03-27T07:04:28.290Z,1008.31
2023-03-27T07:05:04.895Z,1008.31
2023-03-27T07:05:30.937Z,1008.30
2023-03-27T07:06:00.854Z,1008.29
2023-03-27T07:06:30.961Z,1008.31
2023-03-27T07:07:01.867Z,1008.35
2023-03-27T07:07:32.797Z,1008.33
2023-03-27T07:08:15.138Z,1008.34
2023-03-27T07:08:35.495Z,1008.36
2023-03-27T07:09:05.423Z,1008.37
2023-03-27T07:09:37.901Z,1008.36
2023-03-27T07:10:07.278Z,1008.40
2023-03-27T07:10:37.787Z,1008.41
2023-03-27T07:11:12.234Z,1008.39
2023-03-27T07:11:39.563Z,1008.39
2023-03-27T07:12:10.037Z,1008.42
2023-03-27T07:12:41.187Z,1008.42
2023-03-27T07:13:11.768Z,1008.45
2023-03-27T07:13:42.340Z,1008.49
2023-03-27T07:14:13.105Z,1008.50
2023-03-27T07:14:44.313Z,1008.49
2023-03-27T07:15:55.801Z,1008.48
2023-03-27T07:16:26.755Z,1008.50
2023-03-27T07:16:57.274Z,1008.53
2023-03-27T07:17:41.863Z,1008.52
2023-03-27T07:17:59.126Z,1008.55
2023-03-27T07:18:29.698Z,1008.54
2023-03-27T07:19:02.407Z,1008.61
2023-03-27T07:19:31.273Z,1008.59
2023-03-27T07:20:02.189Z,1008.65
2023-03-27T07:20:33.040Z,1008.63
2023-03-27T07:21:03.852Z,1008.66
2023-03-27T07:21:34.874Z,1008.67
2023-03-27T07:22:05.876Z,1008.71
2023-03-27T07:22:36.369Z,1008.71
2023-03-27T07:23:07.510Z,1008.76
2023-03-27T07:23:38.018Z,1008.75
2023-03-27T07:24:08.414Z,1008.78
2023-03-27T07:24:39.317Z,1008.78
2023-03-27T07:25:10.216Z,1008.78
2023-03-27T07:25:41.293Z,1008.82
2023-03-27T07:26:12.176Z,1008.82
2023-03-27T07:26:42.832Z,1008.86
2023-03-27T07:27:13.401Z,1008.87
2023-03-27T07:27:43.881Z,1008.88
2023-03-27T07:28:14.862Z,1008.86
2023-03-27T07:28:45.838Z,1008.92
2023-03-27T07:29:16.966Z,1008.93
2023-03-27T07:29:47.620Z,1008.92
2023-03-27T07:30:18.083Z,1008.92
2023-03-27T07:30:49.093Z,1008.95
2023-03-27T07:31:35.115Z,1008.93
2023-03-27T07:32:34.159Z,1008.98
2023-03-27T07:32:53.184Z,1009.01
2023-03-27T07:33:22.830Z,1009.04
2023-03-27T07:33:54.584Z,1009.07
2023-03-27T07:34:24.037Z,1009.07
2023-03-27T07:34:54.746Z,1009.08
2023-03-27T07:35:25.421Z,1009.12
2023-03-27T07:35:56.120Z,1009.11
2023-03-27T07:36:26.640Z,1009.11
2023-03-27T07:36:57.541Z,1009.11
2023-03-27T07:37:28.548Z,1009.11
2023-03-27T07:37:59.237Z,1009.15
2023-03-27T07:38:29.775Z,1009.19
2023-03-27T07:39:00.170Z,1009.20
2023-03-27T07:39:31.188Z,1009.19
2023-03-27T07:40:01.638Z,1009.21
2023-03-27T07:40:39.367Z,1009.21
2023-03-27T07:41:03.129Z,1009.25
2023-03-27T07:41:33.554Z,1009.30
2023-03-27T07:42:04.517Z,1009.29
2023-03-27T07:42:35.444Z,1009.30
2023-03-27T07:43:06.457Z,1009.32
2023-03-27T07:43:37.093Z,1009.34
2023-03-27T07:44:07.597Z,1009.38
2023-03-27T07:44:38.263Z,1009.42
2023-03-27T07:45:08.884Z,1009.42
2023-03-27T07:45:39.483Z,1009.45
2023-03-27T07:46:09.986Z,1009.48
2023-03-27T07:46:40.615Z,1009.50
2023-03-27T07:47:11.159Z,1009.50
2023-03-27T07:47:41.807Z,1009.51
2023-03-27T07:48:12.358Z,1009.49
2023-03-27T07:48:42.990Z,1009.53
2023-03-27T07:49:13.659Z,1009.52
2023-03-27T07:49:44.402Z,1009.59
2023-03-27T07:50:15.059Z,1009.59
2023-03-27T07:50:45.591Z,1009.60
2023-03-27T07:51:16.018Z,1009.57
2023-03-27T07:51:47.005Z,1009.58
2023-03-27T07:53:37.971Z,1009.69
2023-03-27T07:54:08.644Z,1009.69
2023-03-27T07:54:39.115Z,1009.70
2023-03-27T07:55:10.088Z,1009.69
2023-03-27T07:55:41.219Z,1009.76
2023-03-27T07:56:11.716Z,1009.72
2023-03-27T07:56:42.434Z,1009.75
2023-03-27T07:57:13.155Z,1009.78
2023-03-27T07:57:57.209Z,1009.82
2023-03-27T07:58:15.690Z,1009.84
2023-03-27T07:58:45.553Z,1009.84
2023-03-27T07:59:15.903Z,1009.87
2023-03-27T07:59:46.795Z,1009.89
2023-03-27T08:00:17.725Z,1009.90
2023-03-27T08:00:48.723Z,1009.93
2023-03-27T08:01:19.919Z,1009.96
2023-03-27T08:01:50.629Z,1009.95
2023-03-27T08:02:21.255Z,1009.95
2023-03-27T08:02:51.775Z,1009.95
2023-03-27T08:03:22.501Z,1009.97
2023-03-27T08:03:53.373Z,1009.97
2023-03-27T08:04:24.155Z,1009.99
2023-03-27T08:04:55.231Z,1010.03
2023-03-27T08:05:25.601Z,1010.00
2023-03-27T08:05:56.531Z,1010.01
2023-03-27T08:06:26.695Z,1010.02
2023-03-27T08:06:57.275Z,1010.05
2023-03-27T08:07:27.777Z,1010.05
2023-03-27T08:07:58.905Z,1010.03
2023-03-27T08:08:29.420Z,1010.02
2023-03-27T08:09:01.585Z,1010.03
2023-03-27T08:09:30.483Z,1010.06
2023-03-27T08:10:01.408Z,1010.09
2023-03-27T08:10:32.522Z,1010.07
2023-03-27T08:11:02.992Z,1010.08
2023-03-27T08:11:33.944Z,1010.04
2023-03-27T08:12:05.121Z,1010.05
2023-03-27T08:12:35.746Z,1010.05
2023-03-27T08:13:06.277Z,1010.08
2023-03-27T08:13:36.784Z,1010.07
2023-03-27T08:14:07.248Z,1010.09
2023-03-27T08:14:38.164Z,1010.06
2023-03-27T08:15:09.280Z,1010.08
2023-03-27T08:15:39.752Z,1010.10
2023-03-27T08:16:10.783Z,1010.10
2023-03-27T08:16:41.336Z,1010.09
2023-03-27T08:17:16.133Z,1010.13
2023-03-27T08:17:43.844Z,1010.12
2023-03-27T08:18:13.672Z,1010.15
2023-03-27T08:18:44.144Z,1010.14
2023-03-27T08:19:15.145Z,1010.15
2023-03-27T08:19:45.657Z,1010.16
2023-03-27T08:20:16.566Z,1010.20
2023-03-27T08:20:47.564Z,1010.23
2023-03-27T08:21:18.608Z,1010.24
2023-03-27T08:22:30.041Z,1010.26
2023-03-27T08:23:00.994Z,1010.27
2023-03-27T08:23:31.880Z,1010.30
2023-03-27T08:24:03.047Z,1010.29
2023-03-27T08:24:33.508Z,1010.28
2023-03-27T08:25:04.740Z,1010.30
2023-03-27T08:25:35.226Z,1010.32
2023-03-27T08:26:06.195Z,1010.32
2023-03-27T08:27:18.171Z,1010.35
2023-03-27T08:27:49.124Z,1010.38
2023-03-27T08:28:20.134Z,1010.39
2023-03-27T08:28:50.803Z,1010.43
2023-03-27T08:29:21.301Z,1010.41
2023-03-27T08:29:51.932Z,1010.42
2023-03-27T08:30:22.415Z,1010.43
2023-03-27T08:30:53.467Z,1010.43
2023-03-27T08:31:25.338Z,1010.43
2023-03-27T08:31:54.790Z,1010.45
2023-03-27T08:32:25.949Z,1010.47
2023-03-27T08:32:56.427Z,1010.48
2023-03-27T08:33:27.319Z,1010.47
2023-03-27T08:33:58.329Z,1010.49
2023-03-27T08:34:28.761Z,1010.52
2023-03-27T08:34:59.751Z,1010.51
2023-03-27T08:35:30.886Z,1010.56
2023-03-27T08:36:01.407Z,1010.59
2023-03-27T08:36:31.980Z,1010.54
2023-03-27T08:37:02.395Z,1010.57
2023-03-27T08:37:33.357Z,1010.59
2023-03-27T08:38:07.347Z,1010.58
2023-03-27T08:38:36.230Z,1010.64
2023-03-27T08:39:05.660Z,1010.61
2023-03-27T08:39:36.775Z,1010.62
2023-03-27T08:40:07.260Z,1010.64
2023-03-27T08:40:38.374Z,1010.66
2023-03-27T08:41:09.014Z,1010.67
2023-03-27T08:41:41.147Z,1010.70
2023-03-27T08:42:10.119Z,1010.73
2023-03-27T08:42:41.091Z,1010.76
2023-03-27T08:43:12.017Z,1010.76
2023-03-27T08:43:42.945Z,1010.76
2023-03-27T08:44:14.048Z,1010.78
2023-03-27T08:44:44.519Z,1010.76
2023-03-27T08:45:15.438Z,1010.79
2023-03-27T08:45:46.497Z,1010.78
2023-03-27T08:46:17.005Z,1010.78
2023-03-27T08:46:47.466Z,1010.83
2023-03-27T08:47:18.610Z,1010.80
2023-03-27T08:47:49.117Z,1010.78
2023-03-27T08:48:21.788Z,1010.82
2023-03-27T08:48:51.191Z,1010.84
2023-03-27T08:49:21.656Z,1010.84
2023-03-27T08:49:52.644Z,1010.84
2023-03-27T08:50:23.398Z,1010.84
2023-03-27T08:50:53.915Z,1010.87
2023-03-27T08:51:24.853Z,1010.89
2023-03-27T08:51:55.810Z,1010.89
2023-03-27T08:52:26.885Z,1010.93
2023-03-27T08:52:57.465Z,1010.94
2023-03-27T08:53:29.630Z,1010.99
2023-03-27T08:53:58.718Z,1010.98
2023-03-27T08:54:29.631Z,1011.00
2023-03-27T08:55:00.501Z,1011.00
2023-03-27T08:55:31.409Z,1011.02
2023-03-27T08:56:02.349Z,1010.99
2023-03-27T08:56:33.581Z,1011.04
2023-03-27T08:57:04.061Z,1011.05
2023-03-27T08:57:35.021Z,1011.07
2023-03-27T08:58:06.032Z,1011.07
2023-03-27T08:58:36.464Z,1011.09
2023-03-27T08:59:07.590Z,1011.10
2023-03-27T08:59:38.163Z,1011.12
2023-03-27T09:00:08.647Z,1011.15
2023-03-27T09:00:39.573Z,1011.17
2023-03-27T09:01:10.509Z,1011.20
2023-03-27T09:01:41.520Z,1011.18
2023-03-27T09:02:12.132Z,1011.21
2023-03-27T09:02:43.292Z,1011.23
2023-03-27T09:03:13.928Z,1011.21
2023-03-27T09:03:44.738Z,1011.25
2023-03-27T09:04:15.292Z,1011.26
2023-03-27T09:04:46.195Z,1011.27
2023-03-27T09:05:17.161Z,1011.23
2023-03-27T09:05:48.235Z,1011.22
2023-03-27T09:06:18.687Z,1011.25
2023-03-27T09:06:49.687Z,1011.27
2023-03-27T09:07:20.711Z,1011.25
2023-03-27T09:07:51.117Z,1011.29
2023-03-27T09:08:22.118Z,1011.27
2023-03-27T09:08:52.818Z,1011.26
2023-03-27T09:09:23.296Z,1011.29
2023-03-27T09:09:54.183Z,1011.30
2023-03-27T09:10:24.708Z,1011.31
2023-03-27T09:10:56.267Z,1011.36
2023-03-27T09:11:26.352Z,1011.33
2023-03-27T09:11:57.489Z,1011.37
2023-03-27T09:12:28.045Z,1011.37
2023-03-27T09:12:58.492Z,1011.38
2023-03-27T09:13:29.207Z,1011.41
2023-03-27T09:14:00.115Z,1011.39
2023-03-27T09:14:31.009Z,1011.44
2023-03-27T09:15:02.231Z,1011.40
2023-03-27T09:15:32.873Z,1011.41
2023-03-27T09:16:03.348Z,1011.42
2023-03-27T09:16:34.080Z,1011.46
2023-03-27T09:17:04.578Z,1011.40
2023-03-27T09:17:35.628Z,1011.48
2023-03-27T09:18:06.368Z,1011.45
2023-03-27T09:18:36.975Z,1011.43
2023-03-27T09:19:07.556Z,1011.46
2023-03-27T09:19:38.006Z,1011.45
2023-03-27T09:20:08.980Z,1011.48
2023-03-27T09:20:39.880Z,1011.47
2023-03-27T09:21:11.059Z,1011.48
2023-03-27T09:21:41.600Z,1011.49
2023-03-27T09:22:12.080Z,1011.48
2023-03-27T09:22:43.021Z,1011.47
2023-03-27T09:23:14.183Z,1011.49
2023-03-27T09:23:44.672Z,1011.48
2023-03-27T09:24:15.741Z,1011.50
2023-03-27T09:24:46.442Z,1011.52
2023-03-27T09:25:16.915Z,1011.50
2023-03-27T09:25:47.834Z,1011.53
2023-03-27T09:26:18.717Z,1011.61
2023-03-27T09:27:01.052Z,1011.59
2023-03-27T09:27:21.587Z,1011.59
2023-03-27T09:27:51.562Z,1011.62
2023-03-27T09:28:21.578Z,1011.62
2023-03-27T09:28:52.338Z,1011.65
2023-03-27T09:29:22.736Z,1011.64
2023-03-27T09:30:05.652Z,1011.64
2023-03-27T09:30:25.312Z,1011.66
2023-03-27T09:30:54.921Z,1011.63
2023-03-27T09:31:25.677Z,1011.67
2023-03-27T09:31:56.251Z,1011.64
2023-03-27T09:32:27.497Z,1011.68
2023-03-27T09:32:58.964Z,1011.69
2023-03-27T09:33:28.445Z,1011.70
2023-03-27T09:33:59.377Z,1011.74
2023-03-27T09:34:30.527Z,1011.72
2023-03-27T09:35:01.062Z,1011.75
2023-03-27T09:35:31.718Z,1011.76
2023-03-27T09:36:02.258Z,1011.76
2023-03-27T09:36:32.787Z,1011.77
2023-03-27T09:37:03.784Z,1011.78
2023-03-27T09:37:36.440Z,1011.80
2023-03-27T09:38:05.251Z,1011.80
2023-03-27T09:38:35.836Z,1011.78
2023-03-27T09:39:06.427Z,1011.88
2023-03-27T09:39:36.853Z,1011.84
2023-03-27T09:40:07.801Z,1011.86
2023-03-27T09:40:38.880Z,1011.87
2023-03-27T09:41:09.542Z,1011.88
2023-03-27T09:41:40.403Z,1011.89
2023-03-27T09:42:10.876Z,1011.92
2023-03-27T09:42:41.888Z,1011.93
2023-03-27T09:43:12.779Z,1011.92
2023-03-27T09:43:43.708Z,1011.93
2023-03-27T09:44:14.686Z,1011.94
2023-03-27T09:44:45.806Z,1011.97
2023-03-27T09:45:16.284Z,1011.98
2023-03-27T09:45:47.237Z,1012.01
2023-03-27T09:46:18.181Z,1012.04
2023-03-27T09:46:48.991Z,1012.05
2023-03-27T09:47:19.874Z,1012.04
2023-03-27T09:47:50.664Z,1012.05
2023-03-27T09:48:21.222Z,1012.09
2023-03-27T09:48:51.704Z,1012.09
2023-03-27T09:49:22.657Z,1012.09
2023-03-27T09:49:53.655Z,1012.09
2023-03-27T09:50:26.353Z,1012.07
2023-03-27T09:50:55.399Z,1012.08
2023-03-27T09:51:25.609Z,1012.09
2023-03-27T09:51:56.628Z,1012.09
2023-03-27T09:52:27.056Z,1012.09
2023-03-27T09:52:58.015Z,1012.10
2023-03-27T09:53:28.950Z,1012.11
2023-03-27T09:54:00.148Z,1012.14
2023-03-27T09:54:30.636Z,1012.13
2023-03-27T09:55:01.538Z,1012.13
2023-03-27T09:55:32.518Z,1012.13
2023-03-27T09:56:03.588Z,1012.13
2023-03-27T09:56:34.232Z,1012.17
2023-03-27T09:57:05.377Z,1012.18
2023-03-27T09:57:35.866Z,1012.19
2023-03-27T09:58:06.873Z,1012.20
2023-03-27T09:58:37.325Z,1012.22
2023-03-27T09:59:08.320Z,1012.21
2023-03-27T09:59:39.230Z,1012.20
2023-03-27T10:00:10.402Z,1012.21
2023-03-27T10:00:41.103Z,1012.22
2023-03-27T10:01:11.686Z,1012.23
2023-03-27T10:01:42.096Z,1012.29
2023-03-27T10:02:13.106Z,1012.30
2023-03-27T10:02:44.010Z,1012.31
2023-03-27T10:03:16.525Z,1012.36
2023-03-27T10:03:45.911Z,1012.34
2023-03-27T10:04:16.385Z,1012.33
2023-03-27T10:04:46.904Z,1012.34
2023-03-27T10:05:17.848Z,1012.33
2023-03-27T10:05:48.842Z,1012.33
2023-03-27T10:06:19.952Z,1012.38
2023-03-27T10:06:50.891Z,1012.38
2023-03-27T10:07:21.381Z,1012.39
2023-03-27T10:07:52.264Z,1012.40
2023-03-27T10:08:24.813Z,1012.39
2023-03-27T10:08:54.032Z,1012.42
2023-03-27T10:09:25.217Z,1012.42
2023-03-27T10:09:55.607Z,1012.44
2023-03-27T10:10:26.737Z,1012.43
2023-03-27T10:10:57.541Z,1012.44
2023-03-27T10:11:27.817Z,1012.47
2023-03-27T10:11:58.443Z,1012.45
2023-03-27T10:12:29.138Z,1012.46
2023-03-27T10:12:59.665Z,1012.47
2023-03-27T10:13:30.292Z,1012.51
2023-03-27T10:14:00.772Z,1012.51
2023-03-27T10:14:31.914Z,1012.49
2023-03-27T10:15:02.516Z,1012.49
2023-03-27T10:15:33.379Z,1012.50
2023-03-27T10:16:03.919Z,1012.47
2023-03-27T10:16:34.404Z,1012.46
2023-03-27T10:17:05.287Z,1012.44
2023-03-27T10:17:35.893Z,1012.46
2023-03-27T10:18:06.722Z,1012.49
2023-03-27T10:18:37.588Z,1012.49
2023-03-27T10:19:08.090Z,1012.49
2023-03-27T10:19:39.024Z,1012.52
2023-03-27T10:20:10.094Z,1012.51
2023-03-27T10:20:40.582Z,1012.54
2023-03-27T10:21:11.517Z,1012.51
2023-03-27T10:21:42.692Z,1012.53
2023-03-27T10:22:14.374Z,1012.52
2023-03-27T10:22:44.235Z,1012.52
2023-03-27T10:23:15.175Z,1012.50
2023-03-27T10:23:46.282Z,1012.51
2023-03-27T10:24:16.828Z,1012.46
2023-03-27T10:24:48.033Z,1012.50
2023-03-27T10:25:18.540Z,1012.49